createdAt,value
2022-09-26T00:00:21.749Z,77.08
2022-09-26T00:01:21.777Z,76.74
2022-09-26T00:02:21.782Z,76.67
2022-09-26T00:03:21.721Z,76.84
2022-09-26T00:04:23.635Z,76.78
2022-09-26T00:05:21.699Z,76.57
2022-09-26T00:06:21.699Z,76.47
2022-09-26T00:07:21.676Z,76.87
2022-09-26T00:08:21.666Z,76.54
2022-09-26T00:09:21.658Z,76.43
2022-09-26T00:10:21.649Z,76.94
2022-09-26T00:11:21.645Z,76.37
2022-09-26T00:12:21.619Z,76.67
2022-09-26T00:13:21.630Z,76.57
2022-09-26T00:14:21.600Z,76.57
2022-09-26T00:15:21.592Z,76.87
2022-09-26T00:16:21.626Z,76.67
2022-09-26T00:17:21.569Z,76.06
2022-09-26T00:18:21.554Z,76.17
2022-09-26T00:19:21.546Z,76.37
2022-09-26T00:20:21.534Z,76.37
2022-09-26T00:21:21.575Z,76.78
2022-09-26T00:22:21.510Z,76.47
2022-09-26T00:23:21.501Z,76.37
2022-09-26T00:24:21.500Z,76.17
2022-09-26T00:25:21.480Z,76.37
2022-09-26T00:26:21.480Z,75.96
2022-09-26T00:27:21.460Z,76.17
2022-09-26T00:28:21.446Z,76.06
2022-09-26T00:29:21.459Z,76.67
2022-09-26T00:30:21.504Z,76.47
2022-09-26T00:31:21.587Z,76.37
2022-09-26T00:32:21.404Z,76.37
2022-09-26T00:33:21.394Z,76.47
2022-09-26T00:34:21.382Z,76.67
2022-09-26T00:35:21.372Z,76.27
2022-09-26T00:36:29.672Z,76.06
2022-09-26T00:37:22.350Z,76.87
2022-09-26T00:38:21.347Z,76.51
2022-09-26T00:39:21.329Z,76.81
2022-09-26T00:40:21.504Z,76.61
2022-09-26T00:41:21.330Z,77.32
2022-09-26T00:42:21.295Z,77.01
2022-09-26T00:43:21.285Z,77.42
2022-09-26T00:44:21.274Z,76.71
2022-09-26T00:45:21.279Z,76.71
2022-09-26T00:46:21.285Z,77.42
2022-09-26T00:47:21.258Z,77.12
2022-09-26T00:48:21.230Z,77.01
2022-09-26T00:49:21.222Z,77.01
2022-09-26T00:50:21.208Z,77.59
2022-09-26T00:51:21.201Z,77.12
2022-09-26T00:52:21.199Z,76.98
2022-09-26T00:53:21.176Z,77.69
2022-09-26T00:54:21.164Z,77.72
2022-09-26T00:55:21.156Z,77.72
2022-09-26T00:56:21.143Z,77.72
2022-09-26T00:57:21.146Z,77.72
2022-09-26T00:58:21.125Z,77.72
2022-09-26T00:59:21.112Z,77.48
2022-09-26T01:00:21.100Z,77.83
2022-09-26T01:01:21.210Z,77.72
2022-09-26T01:02:21.301Z,77.62
2022-09-26T01:03:21.068Z,77.83
2022-09-26T01:04:21.058Z,77.72
2022-09-26T01:05:21.047Z,77.32
2022-09-26T01:06:21.036Z,77.52
2022-09-26T01:07:21.036Z,77.89
2022-09-26T01:08:21.018Z,77.62
2022-09-26T01:09:21.007Z,78.03
2022-09-26T01:10:20.994Z,78.13
2022-09-26T01:11:20.983Z,78.13
2022-09-26T01:12:20.983Z,77.89
2022-09-26T01:13:20.961Z,78.23
2022-09-26T01:14:20.954Z,78.13
2022-09-26T01:15:20.949Z,78.13
2022-09-26T01:16:21.004Z,78.13
2022-09-26T01:17:20.947Z,78.03
2022-09-26T01:18:20.905Z,77.93
2022-09-26T01:19:20.895Z,77.93
2022-09-26T01:20:20.898Z,77.93
2022-09-26T01:21:20.883Z,77.93
2022-09-26T01:22:20.884Z,77.83
2022-09-26T01:23:20.853Z,78.03
2022-09-26T01:24:20.874Z,77.93
2022-09-26T01:25:20.829Z,78.13
2022-09-26T01:26:20.884Z,77.62
2022-09-26T01:27:20.811Z,77.83
2022-09-26T01:28:20.819Z,77.83
2022-09-26T01:29:20.811Z,78.13
2022-09-26T01:30:20.776Z,78.33
2022-09-26T01:31:20.858Z,77.72
2022-09-26T01:32:20.764Z,77.72
2022-09-26T01:33:20.763Z,77.83
2022-09-26T01:34:20.732Z,77.72
2022-09-26T01:35:20.738Z,77.83
2022-09-26T01:36:20.739Z,77.72
2022-09-26T01:37:20.701Z,77.83
2022-09-26T01:38:20.711Z,78.23
2022-09-26T01:39:20.678Z,78.13
2022-09-26T01:40:20.701Z,78.23
2022-09-26T01:41:20.669Z,77.93
2022-09-26T01:42:20.646Z,77.83
2022-09-26T01:43:20.644Z,77.93
2022-09-26T01:44:20.648Z,78.13
2022-09-26T01:45:20.615Z,77.93
2022-09-26T01:46:20.662Z,78.13
2022-09-26T01:47:20.625Z,78.23
2022-09-26T01:48:20.588Z,77.97
2022-09-26T01:49:20.591Z,77.93
2022-09-26T01:50:20.584Z,77.83
2022-09-26T01:51:20.566Z,77.72
2022-09-26T01:52:20.541Z,77.72
2022-09-26T01:53:20.530Z,77.72
2022-09-26T01:54:20.514Z,77.86
2022-09-26T01:55:20.506Z,77.83
2022-09-26T01:56:20.535Z,78.06
2022-09-26T01:57:20.486Z,78.17
2022-09-26T01:58:20.483Z,78.17
2022-09-26T01:59:20.467Z,78.23
2022-09-26T02:00:20.453Z,78.13
2022-09-26T02:01:20.482Z,78.13
2022-09-26T02:02:20.488Z,77.97
2022-09-26T02:03:20.434Z,78.23
2022-09-26T02:04:20.408Z,77.83
2022-09-26T02:05:20.457Z,78.13
2022-09-26T02:06:20.396Z,78.03
2022-09-26T02:07:20.376Z,78.13
2022-09-26T02:08:20.362Z,78.13
2022-09-26T02:09:20.354Z,78.03
2022-09-26T02:10:20.344Z,78.03
2022-09-26T02:11:20.346Z,77.97
2022-09-26T02:12:20.320Z,77.83
2022-09-26T02:13:20.312Z,77.86
2022-09-26T02:14:20.301Z,77.62
2022-09-26T02:15:20.295Z,77.36
2022-09-26T02:16:20.339Z,77.62
2022-09-26T02:17:20.267Z,77.36
2022-09-26T02:18:20.258Z,77.52
2022-09-26T02:19:20.251Z,77.32
2022-09-26T02:20:20.237Z,77.01
2022-09-26T02:21:20.254Z,77.32
2022-09-26T02:22:20.213Z,76.81
2022-09-26T02:23:20.206Z,76.95
2022-09-26T02:24:20.191Z,76.75
2022-09-26T02:25:20.182Z,76.71
2022-09-26T02:26:20.179Z,76.75
2022-09-26T02:27:20.160Z,76.95
2022-09-26T02:28:20.146Z,76.71
2022-09-26T02:29:20.155Z,76.75
2022-09-26T02:30:20.125Z,76.54
2022-09-26T02:31:20.185Z,76.75
2022-09-26T02:32:20.194Z,76.95
2022-09-26T02:33:20.092Z,76.85
2022-09-26T02:34:20.083Z,76.61
2022-09-26T02:35:20.072Z,76.54
2022-09-26T02:36:20.069Z,77.05
2022-09-26T02:37:20.069Z,76.85
2022-09-26T02:38:20.039Z,77.56
2022-09-26T02:39:20.029Z,77.15
2022-09-26T02:40:20.061Z,76.91
2022-09-26T02:41:20.023Z,77.62
2022-09-26T02:42:19.994Z,77.45
2022-09-26T02:43:19.986Z,77.56
2022-09-26T02:44:19.975Z,77.52
2022-09-26T02:45:19.963Z,77.32
2022-09-26T02:46:20.010Z,77.56
2022-09-26T02:47:19.944Z,77.83
2022-09-26T02:48:19.929Z,77.52
2022-09-26T02:49:19.921Z,77.76
2022-09-26T02:50:19.908Z,77.72
2022-09-26T02:51:19.913Z,77.66
2022-09-26T02:52:19.890Z,77.72
2022-09-26T02:53:19.898Z,77.62
2022-09-26T02:54:19.865Z,77.62
2022-09-26T02:55:19.859Z,77.66
2022-09-26T02:56:19.855Z,77.72
2022-09-26T02:57:19.833Z,77.22
2022-09-26T02:58:19.823Z,77.83
2022-09-26T02:59:19.848Z,77.72
2022-09-26T03:00:19.804Z,77.42
2022-09-26T03:01:20.016Z,77.62
2022-09-26T03:02:19.779Z,77.76
2022-09-26T03:03:19.771Z,77.52
2022-09-26T03:04:19.808Z,77.66
2022-09-26T03:05:19.752Z,77.56
2022-09-26T03:06:19.745Z,77.52
2022-09-26T03:07:19.727Z,77.62
2022-09-26T03:08:19.713Z,77.32
2022-09-26T03:09:19.724Z,77.52
2022-09-26T03:10:19.693Z,77.52
2022-09-26T03:11:19.693Z,77.42
2022-09-26T03:12:19.670Z,77.52
2022-09-26T03:13:19.661Z,77.86
2022-09-26T03:14:19.651Z,77.42
2022-09-26T03:15:19.642Z,77.66
2022-09-26T03:16:19.740Z,77.62
2022-09-26T03:17:19.618Z,77.72
2022-09-26T03:18:19.612Z,77.62
2022-09-26T03:19:19.596Z,77.62
2022-09-26T03:20:19.593Z,77.86
2022-09-26T03:21:19.575Z,77.66
2022-09-26T03:22:19.573Z,77.32
2022-09-26T03:23:19.553Z,77.36
2022-09-26T03:24:19.541Z,77.42
2022-09-26T03:25:19.548Z,77.52
2022-09-26T03:26:19.530Z,78.27
2022-09-26T03:27:19.513Z,77.93
2022-09-26T03:28:19.498Z,78.37
2022-09-26T03:29:19.487Z,78.13
2022-09-26T03:30:19.487Z,78.13
2022-09-26T03:31:19.536Z,77.93
2022-09-26T03:32:19.453Z,77.83
2022-09-26T03:33:19.448Z,77.83
2022-09-26T03:34:19.431Z,77.76
2022-09-26T03:35:19.422Z,77.76
2022-09-26T03:36:19.422Z,77.72
2022-09-26T03:37:19.402Z,77.86
2022-09-26T03:38:19.389Z,77.86
2022-09-26T03:39:19.381Z,77.76
2022-09-26T03:40:19.450Z,77.93
2022-09-26T03:41:19.410Z,77.76
2022-09-26T03:42:19.351Z,77.86
2022-09-26T03:43:19.336Z,77.76
2022-09-26T03:44:19.325Z,77.72
2022-09-26T03:45:19.314Z,77.83
2022-09-26T03:46:19.388Z,77.97
2022-09-26T03:47:19.302Z,77.97
2022-09-26T03:48:19.281Z,78.17
2022-09-26T03:49:19.271Z,78.13
2022-09-26T03:50:19.261Z,78.37
2022-09-26T03:51:19.250Z,78.17
2022-09-26T03:52:19.255Z,78.17
2022-09-26T03:53:19.229Z,78.17
2022-09-26T03:54:19.219Z,78.13
2022-09-26T03:55:19.205Z,78.17
2022-09-26T03:56:19.195Z,78.06
2022-09-26T03:57:19.211Z,77.93
2022-09-26T03:58:19.174Z,77.93
2022-09-26T03:59:19.160Z,77.66
2022-09-26T04:00:19.153Z,77.56
2022-09-26T04:01:19.246Z,77.45
2022-09-26T04:02:19.205Z,77.72
2022-09-26T04:03:19.119Z,77.42
2022-09-26T04:04:19.110Z,77.83
2022-09-26T04:05:19.095Z,78.03
2022-09-26T04:06:19.087Z,78.13
2022-09-26T04:07:19.089Z,78.23
2022-09-26T04:08:19.082Z,78.13
2022-09-26T04:09:19.343Z,78.13
2022-09-26T04:10:19.045Z,78.03
2022-09-26T04:11:19.033Z,78.27
2022-09-26T04:12:19.033Z,78.17
2022-09-26T04:13:40.033Z,78.17
2022-09-26T04:14:20.039Z,78.23
2022-09-26T04:15:18.988Z,77.93
2022-09-26T04:16:19.057Z,77.93
2022-09-26T04:17:18.980Z,78.27
2022-09-26T04:18:18.958Z,78.17
2022-09-26T04:19:18.946Z,78.23
2022-09-26T04:20:18.936Z,78.17
2022-09-26T04:21:18.925Z,78.13
2022-09-26T04:22:18.923Z,78.17
2022-09-26T04:23:18.902Z,78.17
2022-09-26T04:24:18.893Z,78.17
2022-09-26T04:25:18.880Z,78.17
2022-09-26T04:26:23.295Z,78.03
2022-09-26T04:27:18.870Z,77.62
2022-09-26T04:28:18.848Z,77.86
2022-09-26T04:29:18.854Z,77.97
2022-09-26T04:30:18.830Z,78.47
2022-09-26T04:31:18.882Z,78.27
2022-09-26T04:32:18.814Z,78.37
2022-09-26T04:33:18.793Z,78.47
2022-09-26T04:34:22.340Z,77.97
2022-09-26T04:35:19.770Z,78.47
2022-09-26T04:36:18.764Z,78.17
2022-09-26T04:37:18.760Z,78.57
2022-09-26T04:38:18.754Z,78.51
2022-09-26T04:39:18.727Z,78.30
2022-09-26T04:40:18.750Z,78.30
2022-09-26T04:41:18.706Z,78.30
2022-09-26T04:42:18.713Z,78.61
2022-09-26T04:43:18.688Z,78.91
2022-09-26T04:44:18.675Z,78.71
2022-09-26T04:45:18.766Z,78.81
2022-09-26T04:46:21.839Z,78.61
2022-09-26T04:47:19.648Z,78.75
2022-09-26T04:48:18.632Z,78.95
2022-09-26T04:49:18.620Z,79.22
2022-09-26T04:50:18.610Z,79.02
2022-09-26T04:51:18.597Z,79.72
2022-09-26T04:52:18.602Z,79.86
2022-09-26T04:53:18.575Z,79.86
2022-09-26T04:54:18.567Z,79.72
2022-09-26T04:55:18.588Z,79.72
2022-09-26T04:56:18.544Z,79.72
2022-09-26T04:57:19.874Z,79.63
2022-09-26T04:58:18.526Z,79.83
2022-09-26T04:59:18.513Z,79.72
2022-09-26T05:00:18.501Z,79.83
2022-09-26T05:01:18.619Z,79.72
2022-09-26T05:02:18.552Z,79.56
2022-09-26T05:03:18.466Z,79.66
2022-09-26T05:04:18.462Z,79.83
2022-09-26T05:05:18.445Z,80.03
2022-09-26T05:06:18.458Z,80.03
2022-09-26T05:07:18.426Z,79.93
2022-09-26T05:08:18.445Z,79.86
2022-09-26T05:09:18.405Z,79.83
2022-09-26T05:10:18.393Z,79.86
2022-09-26T05:11:18.399Z,79.77
2022-09-26T05:12:18.370Z,79.77
2022-09-26T05:13:18.357Z,79.77
2022-09-26T05:14:18.370Z,79.97
2022-09-26T05:15:18.338Z,79.86
2022-09-26T05:16:18.415Z,80.07
2022-09-26T05:17:33.262Z,79.25
2022-09-26T05:18:18.306Z,79.36
2022-09-26T05:19:18.292Z,80.07
2022-09-26T05:20:18.284Z,79.97
2022-09-26T05:21:18.281Z,79.66
2022-09-26T05:22:18.329Z,79.86
2022-09-26T05:23:18.250Z,79.77
2022-09-26T05:24:18.256Z,79.86
2022-09-26T05:25:18.229Z,79.86
2022-09-26T05:26:18.229Z,79.97
2022-09-26T05:27:18.213Z,79.86
2022-09-26T05:28:18.200Z,79.86
2022-09-26T05:29:18.270Z,79.83
2022-09-26T05:30:18.179Z,79.22
2022-09-26T05:31:18.261Z,79.02
2022-09-26T05:32:18.153Z,78.81
2022-09-26T05:33:18.159Z,78.37
2022-09-26T05:34:20.016Z,78.91
2022-09-26T05:35:18.124Z,78.20
2022-09-26T05:36:18.129Z,78.51
2022-09-26T05:37:18.100Z,78.71
2022-09-26T05:38:18.090Z,78.41
2022-09-26T05:39:18.076Z,78.71
2022-09-26T05:40:18.156Z,78.37
2022-09-26T05:41:18.067Z,78.37
2022-09-26T05:42:18.046Z,78.57
2022-09-26T05:43:18.034Z,78.37
2022-09-26T05:44:18.023Z,77.86
2022-09-26T05:45:18.013Z,77.76
2022-09-26T05:46:18.044Z,77.86
2022-09-26T05:47:17.988Z,78.27
2022-09-26T05:48:17.979Z,77.97
2022-09-26T05:49:18.014Z,78.17
2022-09-26T05:50:17.961Z,77.93
2022-09-26T05:51:17.976Z,77.42
2022-09-26T05:52:17.940Z,77.66
2022-09-26T05:53:17.929Z,77.05
2022-09-26T05:54:17.926Z,77.01
2022-09-26T05:55:17.902Z,76.91
2022-09-26T05:56:19.245Z,76.71
2022-09-26T05:57:17.880Z,76.10
2022-09-26T05:58:17.875Z,76.31
2022-09-26T05:59:17.860Z,76.31
2022-09-26T06:00:17.850Z,76.61
2022-09-26T06:01:17.995Z,76.40
2022-09-26T06:02:20.905Z,76.06
2022-09-26T06:03:17.828Z,75.76
2022-09-26T06:04:17.807Z,75.56
2022-09-26T06:05:17.813Z,74.91
2022-09-26T06:06:17.794Z,75.01
2022-09-26T06:07:32.758Z,74.81
2022-09-26T06:08:17.761Z,74.51
2022-09-26T06:09:17.750Z,74.27
2022-09-26T06:10:17.757Z,74.13
2022-09-26T06:11:17.736Z,73.83
2022-09-26T06:12:17.727Z,72.78
2022-09-26T06:13:17.706Z,72.58
2022-09-26T06:14:17.698Z,72.34
2022-09-26T06:15:17.690Z,71.44
2022-09-26T06:16:17.700Z,70.39
2022-09-26T06:17:17.661Z,70.56
2022-09-26T06:18:20.268Z,70.15
2022-09-26T06:19:22.176Z,69.92
2022-09-26T06:20:18.631Z,69.62
2022-09-26T06:21:17.740Z,69.71
2022-09-26T06:22:17.610Z,69.89
2022-09-26T06:23:17.598Z,69.48
2022-09-26T06:24:17.588Z,69.08
2022-09-26T06:25:17.588Z,68.44
2022-09-26T06:26:17.579Z,67.80
2022-09-26T06:27:17.583Z,66.89
2022-09-26T06:28:17.544Z,66.46
2022-09-26T06:29:17.538Z,65.72
2022-09-26T06:30:17.539Z,65.59
2022-09-26T06:31:17.570Z,64.55
2022-09-26T06:32:17.535Z,64.15
2022-09-26T06:33:17.491Z,63.95
2022-09-26T06:34:17.499Z,63.31
2022-09-26T06:35:17.482Z,63.01
2022-09-26T06:36:17.485Z,62.91
2022-09-26T06:37:17.552Z,62.91
2022-09-26T06:38:17.439Z,63.48
2022-09-26T06:39:17.424Z,61.94
2022-09-26T06:40:17.590Z,61.82
2022-09-26T06:41:17.417Z,61.18
2022-09-26T06:42:17.394Z,61.18
2022-09-26T06:43:17.382Z,60.78
2022-09-26T06:44:17.377Z,60.48
2022-09-26T06:45:17.360Z,60.75
2022-09-26T06:46:17.451Z,60.45
2022-09-26T06:47:17.542Z,59.52
2022-09-26T06:48:19.935Z,59.42
2022-09-26T06:49:18.317Z,59.52
2022-09-26T06:50:17.335Z,59.19
2022-09-26T06:51:17.313Z,58.29
2022-09-26T06:52:17.320Z,58.56
2022-09-26T06:53:17.385Z,58.56
2022-09-26T06:54:17.267Z,58.33
2022-09-26T06:55:17.256Z,57.70
2022-09-26T06:56:17.252Z,57.10
2022-09-26T06:57:17.229Z,57.37
2022-09-26T06:58:17.258Z,55.74
2022-09-26T06:59:17.211Z,55.65
2022-09-26T07:00:17.199Z,55.94
2022-09-26T07:01:17.384Z,55.42
2022-09-26T07:02:17.378Z,55.12
2022-09-26T07:03:17.165Z,54.72
2022-09-26T07:04:17.157Z,54.79
2022-09-26T07:05:17.145Z,53.87
2022-09-26T07:06:17.153Z,52.94
2022-09-26T07:07:17.138Z,53.14
2022-09-26T07:08:17.115Z,52.92
2022-09-26T07:09:17.687Z,52.92
2022-09-26T07:10:17.090Z,53.22
2022-09-26T07:12:18.070Z,52.19
2022-09-26T07:13:17.078Z,52.22
2022-09-26T07:14:17.079Z,52.74
2022-09-26T07:15:17.050Z,52.77
2022-09-26T07:16:17.046Z,53.14
2022-09-26T07:17:17.034Z,53.14
2022-09-26T07:18:17.010Z,53.34
2022-09-26T07:19:17.008Z,52.84
2022-09-26T07:20:17.022Z,52.29
2022-09-26T07:21:16.972Z,52.89
2022-09-26T07:22:16.964Z,52.59
2022-09-26T07:23:16.961Z,52.49
2022-09-26T07:24:16.941Z,52.52
2022-09-26T07:25:16.962Z,52.09
2022-09-26T07:26:16.921Z,52.29
2022-09-26T07:27:16.910Z,52.27
2022-09-26T07:28:16.899Z,51.05
2022-09-26T07:29:16.889Z,51.35
2022-09-26T07:30:16.893Z,51.12
2022-09-26T07:31:16.894Z,51.22
2022-09-26T07:32:16.869Z,51.00
2022-09-26T07:33:16.847Z,50.38
2022-09-26T07:34:18.621Z,49.43
2022-09-26T07:35:16.856Z,48.54
2022-09-26T07:36:16.815Z,49.36
2022-09-26T07:37:16.804Z,49.38
2022-09-26T07:38:16.795Z,50.00
2022-09-26T07:39:16.908Z,49.48
2022-09-26T07:40:16.855Z,49.48
2022-09-26T07:41:16.781Z,48.98
2022-09-26T07:42:16.755Z,48.56
2022-09-26T07:43:21.247Z,48.54
2022-09-26T07:45:27.956Z,48.32
2022-09-26T07:46:17.776Z,47.70
2022-09-26T07:47:16.697Z,46.68
2022-09-26T07:48:16.691Z,47.05
2022-09-26T07:49:16.679Z,46.95
2022-09-26T07:50:16.739Z,46.53
2022-09-26T07:51:16.662Z,46.42
2022-09-26T07:52:16.650Z,44.89
2022-09-26T07:53:16.637Z,44.27
2022-09-26T07:54:16.630Z,45.08
2022-09-26T07:55:16.631Z,44.37
2022-09-26T07:56:16.612Z,44.17
2022-09-26T07:57:16.620Z,43.75
2022-09-26T07:58:16.589Z,43.55
2022-09-26T07:59:16.578Z,43.67
2022-09-26T08:00:16.580Z,43.46
2022-09-26T08:01:16.614Z,43.16
2022-09-26T08:02:16.721Z,42.25
2022-09-26T08:03:16.655Z,42.35
2022-09-26T08:04:16.527Z,42.22
2022-09-26T08:05:16.580Z,41.81
2022-09-26T08:06:16.510Z,41.63
2022-09-26T08:07:16.507Z,42.44
2022-09-26T08:08:16.486Z,42.44
2022-09-26T08:09:16.591Z,41.73
2022-09-26T08:10:16.488Z,41.83
2022-09-26T08:11:16.459Z,41.12
2022-09-26T08:12:16.446Z,41.73
2022-09-26T08:13:16.454Z,41.55
2022-09-26T08:14:16.472Z,42.88
2022-09-26T08:15:16.433Z,42.88
2022-09-26T08:16:16.531Z,43.42
2022-09-26T08:17:16.420Z,43.84
2022-09-26T08:18:16.387Z,43.04
2022-09-26T08:19:16.376Z,44.18
2022-09-26T08:20:16.373Z,44.48
2022-09-26T08:21:16.357Z,44.89
2022-09-26T08:22:16.345Z,45.03
2022-09-26T08:23:16.337Z,45.33
2022-09-26T08:24:16.527Z,45.14
2022-09-26T08:25:16.328Z,45.45
2022-09-26T08:26:16.308Z,45.03
2022-09-26T08:27:16.295Z,45.53
2022-09-26T08:28:16.313Z,45.33
2022-09-26T08:29:16.295Z,45.31
2022-09-26T08:30:16.280Z,44.57
2022-09-26T08:31:16.310Z,44.45
2022-09-26T08:32:16.243Z,43.34
2022-09-26T08:33:16.236Z,43.52
2022-09-26T08:34:18.382Z,43.89
2022-09-26T08:35:16.233Z,43.84
2022-09-26T08:36:16.205Z,43.52
2022-09-26T08:37:16.196Z,42.43
2022-09-26T08:38:16.181Z,42.43
2022-09-26T08:39:16.305Z,42.72
2022-09-26T08:40:16.221Z,42.90
2022-09-26T08:41:16.154Z,42.90
2022-09-26T08:42:16.144Z,42.60
2022-09-26T08:43:16.137Z,41.91
2022-09-26T08:44:16.318Z,42.43
2022-09-26T08:45:16.142Z,41.52
2022-09-26T08:46:16.135Z,41.91
2022-09-26T08:47:16.094Z,42.94
2022-09-26T08:48:16.082Z,42.85
2022-09-26T08:49:16.086Z,42.57
2022-09-26T08:50:16.077Z,43.48
2022-09-26T08:51:16.052Z,43.30
2022-09-26T08:52:16.040Z,43.20
2022-09-26T08:53:16.032Z,43.42
2022-09-26T08:54:16.153Z,43.35
2022-09-26T08:55:16.023Z,43.64
2022-09-26T08:56:16.001Z,43.74
2022-09-26T08:57:15.992Z,43.42
2022-09-26T08:58:15.982Z,43.30
2022-09-26T08:59:15.971Z,42.58
2022-09-26T09:00:15.973Z,42.88
2022-09-26T09:01:16.097Z,43.50
2022-09-26T09:02:16.085Z,43.01
2022-09-26T09:03:16.049Z,43.74
2022-09-26T09:04:16.180Z,43.16
2022-09-26T09:05:15.924Z,43.66
2022-09-26T09:06:15.899Z,44.08
2022-09-26T09:07:15.887Z,44.31
2022-09-26T09:08:15.876Z,43.90
2022-09-26T09:09:15.869Z,43.52
2022-09-26T09:10:15.870Z,44.35
2022-09-26T09:11:15.850Z,44.57
2022-09-26T09:12:18.536Z,45.36
2022-09-26T09:13:15.827Z,45.48
2022-09-26T09:14:15.993Z,45.56
2022-09-26T09:15:25.340Z,45.47
2022-09-26T09:16:16.910Z,44.60
2022-09-26T09:17:15.819Z,44.36
2022-09-26T09:18:15.777Z,43.62
2022-09-26T09:19:15.796Z,43.40
2022-09-26T09:20:15.763Z,42.69
2022-09-26T09:21:15.743Z,39.77
2022-09-26T09:22:15.737Z,39.93
2022-09-26T09:23:15.724Z,39.71
2022-09-26T09:24:15.867Z,39.53
2022-09-26T09:25:15.714Z,39.43
2022-09-26T09:28:16.670Z,40.11
2022-09-26T09:29:18.976Z,39.67
2022-09-26T09:30:16.918Z,38.47
2022-09-26T09:31:15.736Z,37.98
2022-09-26T09:32:15.633Z,38.25
2022-09-26T09:33:15.650Z,37.05
2022-09-26T09:34:15.804Z,36.65
2022-09-26T09:35:15.644Z,36.98
2022-09-26T09:36:15.591Z,37.58
2022-09-26T09:37:15.583Z,37.77
2022-09-26T09:38:15.570Z,37.07
2022-09-26T09:39:15.561Z,37.36
2022-09-26T09:40:15.613Z,37.16
2022-09-26T09:41:15.548Z,38.01
2022-09-26T09:42:15.531Z,38.46
2022-09-26T09:43:15.523Z,39.39
2022-09-26T09:44:15.640Z,40.12
2022-09-26T09:45:15.506Z,40.14
2022-09-26T09:46:15.559Z,41.38
2022-09-26T09:47:15.562Z,41.38
2022-09-26T09:48:15.473Z,41.16
2022-09-26T09:49:15.535Z,41.04
2022-09-26T09:50:15.449Z,40.30
2022-09-26T09:51:15.445Z,39.97
2022-09-26T09:52:15.430Z,39.79
2022-09-26T09:53:15.422Z,39.36
2022-09-26T09:54:15.532Z,38.54
2022-09-26T09:55:15.401Z,38.15
2022-09-26T09:56:15.388Z,38.15
2022-09-26T09:57:15.381Z,38.36
2022-09-26T09:58:15.373Z,37.55
2022-09-26T09:59:15.371Z,37.93
2022-09-26T10:00:15.351Z,37.45
2022-09-26T10:01:15.340Z,37.13
2022-09-26T10:02:15.349Z,37.30
2022-09-26T10:03:15.411Z,36.10
2022-09-26T10:04:15.507Z,36.08
2022-09-26T10:05:15.322Z,36.27
2022-09-26T10:06:44.349Z,35.47
2022-09-26T10:07:16.281Z,35.15
2022-09-26T10:08:15.301Z,35.05
2022-09-26T10:09:35.559Z,35.33
2022-09-26T10:10:16.255Z,35.12
2022-09-26T10:11:15.244Z,34.43
2022-09-26T10:12:15.232Z,34.97
2022-09-26T10:13:15.233Z,35.80
2022-09-26T10:14:15.348Z,37.43
2022-09-26T10:15:15.203Z,37.75
2022-09-26T10:16:15.478Z,37.55
2022-09-26T10:17:15.183Z,37.22
2022-09-26T10:18:30.045Z,36.51
2022-09-26T10:19:16.174Z,35.22
2022-09-26T10:20:15.194Z,35.93
2022-09-26T10:21:15.165Z,36.13
2022-09-26T10:22:15.139Z,36.11
2022-09-26T10:23:15.125Z,36.11
2022-09-26T10:24:15.229Z,36.13
2022-09-26T10:25:15.104Z,36.76
2022-09-26T10:26:15.095Z,37.98
2022-09-26T10:27:15.095Z,38.22
2022-09-26T10:28:15.073Z,39.25
2022-09-26T10:29:15.079Z,39.57
2022-09-26T10:30:15.127Z,40.10
2022-09-26T10:31:15.082Z,40.74
2022-09-26T10:32:15.051Z,41.46
2022-09-26T10:33:15.025Z,42.35
2022-09-26T10:34:15.184Z,41.67
2022-09-26T10:35:18.829Z,42.99
2022-09-26T10:36:14.994Z,42.91
2022-09-26T10:37:15.006Z,43.83
2022-09-26T10:38:14.974Z,44.45
2022-09-26T10:39:14.978Z,44.57
2022-09-26T10:40:15.153Z,44.47
2022-09-26T10:41:14.946Z,44.39
2022-09-26T10:42:14.932Z,44.70
2022-09-26T10:43:14.960Z,45.12
2022-09-26T10:44:14.981Z,45.92
2022-09-26T10:45:14.902Z,46.64
2022-09-26T10:46:14.985Z,46.74
2022-09-26T10:47:14.886Z,47.16
2022-09-26T10:48:14.958Z,47.06
2022-09-26T10:49:14.860Z,47.36
2022-09-26T10:50:14.848Z,47.19
2022-09-26T10:51:14.838Z,47.78
2022-09-26T10:52:18.623Z,46.58
2022-09-26T10:53:14.848Z,47.50
2022-09-26T10:54:15.023Z,47.50
2022-09-26T10:55:14.800Z,47.73
2022-09-26T10:56:14.781Z,48.03
2022-09-26T10:57:14.782Z,49.04
2022-09-26T10:58:15.418Z,49.16
2022-09-26T10:59:14.753Z,47.75
2022-09-26T11:00:14.742Z,48.05
2022-09-26T11:01:14.776Z,48.96
2022-09-26T11:02:14.788Z,49.16
2022-09-26T11:03:14.765Z,49.05
2022-09-26T11:04:14.967Z,49.18
2022-09-26T11:05:14.686Z,49.48
2022-09-26T11:06:14.708Z,49.78
2022-09-26T11:07:14.663Z,49.78
2022-09-26T11:08:14.702Z,49.71
2022-09-26T11:09:14.677Z,49.80
2022-09-26T11:10:14.628Z,49.51
2022-09-26T11:11:14.638Z,50.21
2022-09-26T11:12:14.612Z,49.91
2022-09-26T11:13:14.616Z,50.01
2022-09-26T11:14:14.650Z,50.61
2022-09-26T11:15:14.576Z,50.31
2022-09-26T11:16:14.777Z,50.61
2022-09-26T11:17:14.555Z,50.21
2022-09-26T11:18:14.562Z,50.61
2022-09-26T11:19:14.596Z,50.31
2022-09-26T11:20:14.523Z,49.63
2022-09-26T11:21:28.215Z,50.33
2022-09-26T11:22:15.499Z,50.33
2022-09-26T11:23:14.503Z,49.83
2022-09-26T11:24:14.545Z,50.03
2022-09-26T11:25:14.489Z,49.63
2022-09-26T11:26:14.460Z,50.73
2022-09-26T11:27:14.453Z,50.15
2022-09-26T11:28:14.451Z,51.26
2022-09-26T11:29:14.685Z,50.86
2022-09-26T11:30:14.420Z,50.26
2022-09-26T11:31:14.527Z,50.03
2022-09-26T11:32:14.414Z,50.35
2022-09-26T11:33:14.401Z,48.93
2022-09-26T11:34:14.496Z,49.45
2022-09-26T11:35:14.391Z,49.43
2022-09-26T11:36:14.354Z,50.43
2022-09-26T11:37:14.346Z,50.03
2022-09-26T11:38:14.350Z,49.83
2022-09-26T11:39:14.454Z,49.13
2022-09-26T11:40:14.408Z,49.53
2022-09-26T11:41:14.329Z,48.93
2022-09-26T11:42:14.318Z,49.43
2022-09-26T11:43:14.307Z,49.53
2022-09-26T11:44:14.446Z,48.93
2022-09-26T11:45:14.263Z,49.63
2022-09-26T11:46:14.316Z,49.30
2022-09-26T11:47:14.244Z,49.22
2022-09-26T11:48:14.243Z,49.22
2022-09-26T11:49:14.225Z,49.60
2022-09-26T11:50:14.210Z,49.30
2022-09-26T11:51:14.210Z,48.90
2022-09-26T11:52:14.189Z,49.01
2022-09-26T11:53:14.192Z,49.10
2022-09-26T11:54:14.290Z,49.60
2022-09-26T11:55:14.158Z,48.98
2022-09-26T11:56:14.150Z,48.70
2022-09-26T11:57:14.158Z,49.51
2022-09-26T11:58:14.136Z,49.01
2022-09-26T11:59:14.116Z,49.83
2022-09-26T12:00:14.104Z,49.83
2022-09-26T12:01:14.096Z,50.84
2022-09-26T12:02:14.160Z,50.43
2022-09-26T12:03:14.238Z,50.93
2022-09-26T12:04:14.219Z,52.14
2022-09-26T12:05:14.071Z,51.44
2022-09-26T12:06:14.042Z,51.64
2022-09-26T12:07:14.031Z,52.04
2022-09-26T12:08:14.034Z,51.46
2022-09-26T12:09:14.010Z,51.44
2022-09-26T12:10:13.999Z,51.86
2022-09-26T12:11:13.990Z,51.76
2022-09-26T12:12:14.002Z,51.36
2022-09-26T12:13:14.044Z,51.64
2022-09-26T12:14:14.091Z,51.76
2022-09-26T12:15:13.955Z,51.74
2022-09-26T12:16:14.070Z,51.44
2022-09-26T12:17:13.928Z,51.84
2022-09-26T12:18:14.778Z,51.84
2022-09-26T12:19:16.432Z,51.24
2022-09-26T12:20:13.934Z,50.81
2022-09-26T12:21:13.881Z,50.11
2022-09-26T12:22:13.877Z,50.41
2022-09-26T12:23:13.950Z,50.01
2022-09-26T12:24:13.904Z,50.21
2022-09-26T12:25:19.269Z,50.31
2022-09-26T12:26:14.830Z,51.42
2022-09-26T12:27:13.833Z,50.91
2022-09-26T12:28:13.823Z,51.11
2022-09-26T12:29:13.817Z,51.21
2022-09-26T12:30:13.791Z,51.42
2022-09-26T12:31:18.727Z,51.61
2022-09-26T12:32:14.768Z,51.81
2022-09-26T12:33:13.768Z,51.01
2022-09-26T12:34:13.803Z,51.01
2022-09-26T12:35:13.736Z,50.81
2022-09-26T12:36:13.729Z,51.01
2022-09-26T12:37:13.744Z,50.71
2022-09-26T12:38:13.718Z,51.14
2022-09-26T12:39:13.817Z,49.93
2022-09-26T12:40:13.722Z,50.53
2022-09-26T12:41:13.671Z,51.14
2022-09-26T12:42:13.662Z,50.13
2022-09-26T12:43:13.660Z,50.23
2022-09-26T12:44:13.642Z,50.63
2022-09-26T12:45:13.647Z,50.23
2022-09-26T12:46:13.663Z,49.76
2022-09-26T12:47:13.608Z,50.26
2022-09-26T12:48:13.615Z,49.15
2022-09-26T12:49:13.594Z,49.83
2022-09-26T12:50:13.577Z,50.03
2022-09-26T12:51:13.608Z,50.23
2022-09-26T12:52:13.558Z,50.23
2022-09-26T12:53:13.556Z,49.13
2022-09-26T12:54:13.535Z,50.26
2022-09-26T12:55:13.523Z,50.15
2022-09-26T12:56:13.514Z,49.76